createdAt,value
2024-05-09T00:04:48.685Z,7216.56299
2024-05-09T00:19:50.797Z,4810.71875
2024-05-09T00:34:52.876Z,4878.57129
2024-05-09T00:49:54.945Z,2642.35742
2024-05-09T01:04:57.134Z,2884.68652
2024-05-09T01:19:59.376Z,2164.48413
2024-05-09T01:35:01.518Z,1190.32092
2024-05-09T01:50:03.736Z,456.54819
2024-05-09T02:05:06.170Z,357.67786
2024-05-09T02:20:13.151Z,282.07117
2024-05-09T02:35:18.244Z,213.24968
2024-05-09T02:50:29.079Z,146.36682
2024-05-09T03:05:36.682Z,71.72944
2024-05-09T03:20:39.487Z,20.35565
2024-05-09T03:35:41.963Z,3.87727
2024-05-09T03:50:44.079Z,0
2024-05-09T04:05:46.246Z,0
2024-05-09T04:20:48.519Z,0
2024-05-09T04:35:50.714Z,0
2024-05-09T04:50:53.177Z,0
2024-05-09T05:05:55.850Z,0
2024-05-09T05:20:58.155Z,0
2024-05-09T05:36:00.620Z,0
2024-05-09T05:51:04.627Z,0
2024-05-09T06:06:07.080Z,0
2024-05-09T06:21:09.290Z,0
2024-05-09T06:36:11.448Z,0
2024-05-09T06:51:13.607Z,0
2024-05-09T07:06:15.815Z,0
2024-05-09T07:21:18.154Z,0
2024-05-09T07:36:20.365Z,0
2024-05-09T08:06:27.494Z,0
2024-05-09T08:21:29.635Z,0
2024-05-09T08:36:31.753Z,0
2024-05-09T08:51:33.782Z,0
2024-05-09T09:06:35.894Z,0
2024-05-09T09:21:37.930Z,0
2024-05-09T09:36:39.947Z,0
2024-05-09T09:51:41.959Z,0
2024-05-09T10:06:44.020Z,0
2024-05-09T10:21:46.057Z,0
2024-05-09T10:36:48.110Z,0
2024-05-09T10:51:50.331Z,0
2024-05-09T11:06:52.375Z,0
2024-05-09T11:21:54.460Z,0
2024-05-09T11:36:56.506Z,0
2024-05-09T11:51:58.675Z,1.93863
2024-05-09T12:07:00.769Z,13.57043
2024-05-09T12:22:02.841Z,55.25105
2024-05-09T12:37:04.938Z,122.1339
2024-05-09T12:52:07.279Z,195.80197
2024-05-09T13:07:09.543Z,380.94147
2024-05-09T13:22:11.876Z,509.8606
2024-05-09T13:37:14.107Z,910.18842
2024-05-09T13:52:16.207Z,15005.99219
2024-05-09T14:07:18.309Z,4825.25879
2024-05-09T14:22:20.388Z,10978.48145
2024-05-09T14:37:22.457Z,1337.6571
2024-05-09T14:52:24.500Z,4245.60742
2024-05-09T15:07:26.615Z,2021.99463
2024-05-09T15:22:28.622Z,2620.06299
2024-05-09T15:37:30.624Z,4015.87915
2024-05-09T15:52:32.671Z,5188.75244
2024-05-09T16:07:34.657Z,5875.02881
2024-05-09T16:22:36.640Z,5982.62256
2024-05-09T16:37:38.745Z,6060.16797
2024-05-09T16:52:40.840Z,5967.11377
2024-05-09T17:07:42.899Z,6227.85986
2024-05-09T17:22:44.886Z,6286.98828
2024-05-09T17:37:46.964Z,6359.68701
2024-05-09T17:52:49.282Z,6598.13916
2024-05-09T18:07:51.371Z,7112.84619
2024-05-09T18:22:53.478Z,6526.40967
2024-05-09T18:37:55.506Z,6597.16943
2024-05-09T18:52:58.319Z,6669.86816
2024-05-09T19:08:00.495Z,5599.74268
2024-05-09T19:23:02.620Z,5950.63525
2024-05-09T19:38:04.866Z,5860.48877
2024-05-09T19:53:06.916Z,6107.66455
2024-05-09T20:08:08.985Z,6834.65234
2024-05-09T20:23:11.269Z,6259.84717
2024-05-09T20:38:13.590Z,4877.60156
2024-05-09T20:53:15.757Z,5127.68555
2024-05-09T21:08:17.867Z,7238.85742
2024-05-09T21:23:20.025Z,8313.8291
2024-05-09T21:38:22.084Z,8989.44336
2024-05-09T21:53:24.247Z,9360.69141
2024-05-09T22:08:26.194Z,9599.14355
2024-05-09T22:23:28.331Z,9880.24512
2024-05-09T22:38:30.403Z,9962.6377
2024-05-09T22:53:32.395Z,10131.29883
2024-05-09T23:08:34.376Z,10295.11328
2024-05-09T23:23:36.378Z,10341.63965
2024-05-09T23:38:38.581Z,10311.59082
2024-05-09T23:53:40.567Z,9806.57715
